Time;durP1;ratioP1;P1;durP2;ratioP2;P2;SDS_P1;SDS_P2;PMS_P1;PMS_P2;Temp;Humidity;BMP_temperature;BMP_pressure;BME280_temperature;BME280_humidity;BME280_pressure;Samples;Min_cycle;Max_cycle;Signal;HPM_P1;HPM_P2
2023/02/13 00:01:12;;;;;;;;;45.00;41.33;;;;;;;;5009236;28;8791;-67
2023/02/13 00:03:37;;;;;;;;;49.67;44.00;;;;;;;;5009361;28;8798;-68
2023/02/13 00:06:02;;;;;;;;;37.00;34.33;;;;;;;;5009283;28;8976;-67
2023/02/13 00:08:28;;;;;;;;;44.33;41.00;;;;;;;;5007902;28;8905;-68
2023/02/13 00:10:53;;;;;;;;;49.67;42.00;;;;;;;;5009226;28;9041;-67
2023/02/13 00:13:18;;;;;;;;;53.00;41.33;;;;;;;;5008373;28;8818;-67
2023/02/13 00:15:43;;;;;;;;;44.67;38.33;;;;;;;;5009069;28;8926;-68
2023/02/13 00:18:09;;;;;;;;;45.67;36.33;;;;;;;;5009475;28;8814;-67
2023/02/13 00:20:34;;;;;;;;;32.67;31.67;;;;;;;;5009306;28;8806;-68
2023/02/13 00:22:59;;;;;;;;;30.33;27.67;;;;;;;;5009193;28;8822;-68
2023/02/13 00:25:24;;;;;;;;;30.33;26.00;;;;;;;;5012412;28;8806;-67
2023/02/13 07:47:34;;;;;;;;;25.75;24.00;;;;;;;;5115954;27;1433468;-68
2023/02/13 07:49:59;;;;;;;;;21.33;18.33;;;;;;;;5135251;27;11458;-67
2023/02/13 07:52:24;;;;;;;;;21.67;18.67;;;;;;;;5109545;27;8815;-69
2023/02/13 07:54:50;;;;;;;;;21.67;17.67;;;;;;;;5128010;27;8792;-69
2023/02/13 07:57:16;;;;;;;;;19.67;19.00;;;;;;;;5136442;27;9574;-67
2023/02/13 07:59:41;;;;;;;;;19.33;19.33;;;;;;;;5144637;27;8805;-66
2023/02/13 08:02:09;;;;;;;;;20.25;20.25;;;;;;;;5145474;27;8817;-67
2023/02/13 08:04:34;;;;;;;;;24.75;21.50;;;;;;;;5147972;27;8817;-67
2023/02/13 08:07:00;;;;;;;;;23.75;23.00;;;;;;;;5148050;27;11486;-66
2023/02/13 08:12:09;;;;;;;;;28.00;22.50;;;;;;;;5146491;27;8774;-68
2023/02/13 08:14:35;;;;;;;;;20.50;20.50;;;;;;;;5142915;27;11598;-68
2023/02/13 08:17:00;;;;;;;;;27.50;23.00;;;;;;;;5135371;27;8918;-67
2023/02/13 08:19:26;;;;;;;;;17.75;14.25;;;;;;;;5129617;27;8960;-69
2023/02/13 08:21:51;;;;;;;;;24.00;23.50;;;;;;;;5147985;27;8817;-68
2023/02/13 08:24:16;;;;;;;;;27.50;21.50;;;;;;;;5128988;27;8885;-68
2023/02/13 08:26:42;;;;;;;;;24.50;23.25;;;;;;;;5147514;27;8806;-68
2023/02/13 08:29:09;;;;;;;;;29.00;22.50;;;;;;;;5136162;27;9648;-68
2023/02/13 08:31:34;;;;;;;;;24.75;22.50;;;;;;;;5126963;27;8895;-66
2023/02/13 08:33:59;;;;;;;;;27.00;25.50;;;;;;;;5126779;27;11396;-66
2023/02/13 08:36:25;;;;;;;;;22.00;20.75;;;;;;;;5126802;27;8831;-69
2023/02/13 08:38:50;;;;;;;;;25.25;20.00;;;;;;;;5126645;27;8786;-67
2023/02/13 08:41:20;;;;;;;;;22.25;21.75;;;;;;;;5126518;27;8800;-66
2023/02/13 08:43:46;;;;;;;;;28.00;24.00;;;;;;;;5126766;27;9524;-65
2023/02/13 08:46:11;;;;;;;;;29.25;22.75;;;;;;;;5126323;27;11460;-66
2023/02/13 08:48:36;;;;;;;;;23.25;21.25;;;;;;;;5126143;27;8768;-66
2023/02/13 08:51:06;;;;;;;;;26.75;22.50;;;;;;;;5130603;27;8801;-67
2023/02/13 08:53:32;;;;;;;;;22.25;18.75;;;;;;;;5142830;27;8789;-67
2023/02/13 08:55:57;;;;;;;;;23.00;19.75;;;;;;;;5141254;27;11469;-66
2023/02/13 08:58:22;;;;;;;;;20.25;16.50;;;;;;;;5125726;27;8757;-65
2023/02/13 09:00:48;;;;;;;;;13.50;13.25;;;;;;;;5122057;27;8805;-67
2023/02/13 09:03:13;;;;;;;;;17.67;17.00;;;;;;;;5120303;27;8794;-65
2023/02/13 09:05:38;;;;;;;;;17.33;15.00;;;;;;;;5120430;27;8798;-64
2023/02/13 09:08:04;;;;;;;;;17.33;17.00;;;;;;;;5111147;27;8790;-68
2023/02/13 09:10:30;;;;;;;;;22.00;15.33;;;;;;;;5133355;27;8886;-67
2023/02/13 09:12:55;;;;;;;;;16.00;16.00;;;;;;;;5133164;27;9579;-68
2023/02/13 09:15:20;;;;;;;;;47.33;41.00;;;;;;;;5133091;27;11446;-68
2023/02/13 09:17:46;;;;;;;;;33.33;27.33;;;;;;;;5132975;27;9499;-67
2023/02/13 09:20:12;;;;;;;;;35.00;28.67;;;;;;;;5133113;27;8796;-67
2023/02/13 09:22:38;;;;;;;;;27.00;24.00;;;;;;;;5133424;27;8801;-67
2023/02/13 09:25:03;;;;;;;;;21.33;18.33;;;;;;;;5132540;27;8773;-67
2023/02/13 09:27:29;;;;;;;;;17.00;17.00;;;;;;;;5114004;27;8798;-67
2023/02/13 09:29:54;;;;;;;;;21.67;21.67;;;;;;;;5129754;27;8811;-69
2023/02/13 09:32:20;;;;;;;;;21.33;20.33;;;;;;;;5113360;27;8829;-69
2023/02/13 09:34:45;;;;;;;;;20.33;19.00;;;;;;;;5131558;27;8806;-69
2023/02/13 09:37:10;;;;;;;;;16.33;14.67;;;;;;;;5131706;27;8793;-69
2023/02/13 09:39:35;;;;;;;;;16.67;16.33;;;;;;;;5112987;27;8801;-68
2023/02/13 09:42:01;;;;;;;;;21.00;21.00;;;;;;;;5131301;27;8964;-68
2023/02/13 09:44:33;;;;;;;;;21.33;21.33;;;;;;;;5131311;27;8781;-68
2023/02/13 09:47:17;;;;;;;;;26.67;22.00;;;;;;;;5112478;27;9536;-68
2023/02/13 09:49:48;;;;;;;;;18.33;17.00;;;;;;;;5130859;27;8762;-70
2023/02/13 09:52:13;;;;;;;;;24.67;21.67;;;;;;;;5129559;27;11555;-66
2023/02/13 09:54:39;;;;;;;;;22.33;17.33;;;;;;;;5132090;27;8905;-66
2023/02/13 09:57:21;;;;;;;;;17.75;12.75;;;;;;;;5132243;27;8818;-66
2023/02/13 10:00:02;;;;;;;;;17.00;14.67;;;;;;;;5132247;27;8774;-66
2023/02/13 10:02:27;;;;;;;;;18.50;13.25;;;;;;;;5131584;27;11417;-67
2023/02/13 10:05:02;;;;;;;;;13.75;11.50;;;;;;;;5131987;27;11416;-67
2023/02/13 11:00:23;;;;;;;;;18.25;16.50;;;;;;;;5166174;27;13451;-67
2023/02/13 11:02:49;;;;;;;;;23.50;17.50;;;;;;;;5148448;27;11442;-67
2023/02/13 11:05:16;;;;;;;;;17.25;14.25;;;;;;;;5148315;27;11487;-67
2023/02/13 11:07:43;;;;;;;;;18.50;14.75;;;;;;;;5141426;27;8824;-68
2023/02/13 11:10:18;;;;;;;;;15.00;14.00;;;;;;;;5127808;27;11696;-68
2023/02/13 11:12:44;;;;;;;;;14.00;13.25;;;;;;;;5109000;27;10634;-69
2023/02/13 11:15:22;;;;;;;;;16.75;16.00;;;;;;;;5127417;27;10021;-67
2023/02/13 11:17:48;;;;;;;;;13.50;13.00;;;;;;;;5127990;27;8804;-68
2023/02/13 11:20:22;;;;;;;;;15.00;12.00;;;;;;;;5127491;27;8838;-68
2023/02/13 11:22:48;;;;;;;;;14.25;12.25;;;;;;;;5127724;27;8845;-69
2023/02/13 11:25:28;;;;;;;;;13.67;10.33;;;;;;;;5127582;27;8791;-68
2023/02/13 11:28:06;;;;;;;;;14.50;12.50;;;;;;;;5141432;27;8797;-67
2023/02/13 11:30:33;;;;;;;;;15.25;13.00;;;;;;;;5148178;27;9610;-68
2023/02/13 11:32:59;;;;;;;;;11.75;10.00;;;;;;;;5147776;27;8781;-67
2023/02/13 11:35:27;;;;;;;;;13.67;11.67;;;;;;;;5147930;27;8877;-67
2023/02/13 11:38:10;;;;;;;;;13.25;13.25;;;;;;;;5147960;27;9032;-67
2023/02/13 11:40:36;;;;;;;;;18.50;17.00;;;;;;;;5147802;27;9669;-68
2023/02/13 11:43:05;;;;;;;;;12.00;11.00;;;;;;;;5147629;27;10178;-67
2023/02/13 11:45:30;;;;;;;;;12.50;9.75;;;;;;;;5147734;27;10230;-67
2023/02/13 11:47:56;;;;;;;;;13.75;12.75;;;;;;;;5147670;27;10409;-67
2023/02/13 11:50:21;;;;;;;;;12.75;12.50;;;;;;;;5147351;27;8828;-68
2023/02/13 11:52:53;;;;;;;;;11.50;10.00;;;;;;;;5147678;27;9597;-67
2023/02/13 11:55:27;;;;;;;;;14.25;10.25;;;;;;;;5147564;27;8769;-67
2023/02/13 11:57:59;;;;;;;;;9.50;9.50;;;;;;;;5147046;27;11371;-68
2023/02/13 12:00:27;;;;;;;;;10.75;10.75;;;;;;;;5147659;27;11375;-67
2023/02/13 12:02:52;;;;;;;;;13.00;11.00;;;;;;;;5147524;27;11415;-67
2023/02/13 12:05:23;;;;;;;;;12.50;10.50;;;;;;;;5147165;27;11382;-67
2023/02/13 12:07:48;;;;;;;;;15.00;12.50;;;;;;;;5146759;27;8770;-67
2023/02/13 12:10:21;;;;;;;;;11.00;7.75;;;;;;;;5141602;27;11436;-67
2023/02/13 12:13:01;;;;;;;;;9.00;9.00;;;;;;;;5133261;27;8781;-68
2023/02/13 12:15:26;;;;;;;;;9.00;8.00;;;;;;;;5133248;27;11550;-67
2023/02/13 12:18:24;;;;;;;;;11.25;7.75;;;;;;;;5133236;27;11491;-67
2023/02/13 12:21:01;;;;;;;;;20.25;15.75;;;;;;;;5029452;28;8821;-67
2023/02/13 12:23:44;;;;;;;;;24.75;20.00;;;;;;;;5029440;28;11843;-67
2023/02/13 12:26:18;;;;;;;;;35.25;28.75;;;;;;;;5029112;28;11582;-66
2023/02/13 12:28:44;;;;;;;;;24.50;23.75;;;;;;;;5028765;28;11618;-68
2023/02/13 12:31:20;;;;;;;;;11.75;7.50;;;;;;;;5029157;28;12311;-68
2023/02/13 12:33:53;;;;;;;;;8.25;7.00;;;;;;;;5012826;28;8854;-66
2023/02/13 12:36:23;;;;;;;;;9.00;7.25;;;;;;;;5029293;28;11485;-67
2023/02/13 12:38:48;;;;;;;;;7.75;6.25;;;;;;;;5029054;28;11540;-68
2023/02/13 12:41:16;;;;;;;;;7.75;7.00;;;;;;;;5029416;28;12148;-68
2023/02/13 12:43:50;;;;;;;;;6.75;6.00;;;;;;;;5012407;28;8816;-66
2023/02/13 12:46:28;;;;;;;;;8.00;8.00;;;;;;;;5029054;28;11470;-68
2023/02/13 12:49:12;;;;;;;;;9.25;6.75;;;;;;;;5028902;28;11479;-67
2023/02/13 12:51:46;;;;;;;;;7.00;7.00;;;;;;;;5029136;28;11498;-67
2023/02/13 12:54:30;;;;;;;;;8.75;8.75;;;;;;;;5012330;28;11528;-67
2023/02/13 12:56:55;;;;;;;;;11.25;6.00;;;;;;;;5101825;27;11388;-68
2023/02/13 12:59:21;;;;;;;;;10.00;7.75;;;;;;;;5132090;27;11486;-68
2023/02/13 13:01:46;;;;;;;;;8.00;7.00;;;;;;;;5132113;27;8794;-68
2023/02/13 13:04:30;;;;;;;;;11.25;7.00;;;;;;;;5132465;27;8774;-67
2023/02/13 13:07:07;;;;;;;;;8.25;7.50;;;;;;;;5132512;27;8774;-67
2023/02/13 13:09:35;;;;;;;;;8.25;7.25;;;;;;;;5132277;27;12193;-67
2023/02/13 13:12:00;;;;;;;;;7.50;6.00;;;;;;;;5113469;27;11419;-67
2023/02/13 13:14:34;;;;;;;;;9.00;7.50;;;;;;;;5132143;27;11427;-67
2023/02/13 13:17:18;;;;;;;;;7.00;6.50;;;;;;;;5132587;27;8770;-67
2023/02/13 13:20:02;;;;;;;;;9.25;7.00;;;;;;;;5131616;27;11413;-67
2023/02/13 13:22:33;;;;;;;;;9.00;8.50;;;;;;;;5130875;27;11402;-67
2023/02/13 13:25:04;;;;;;;;;11.00;9.00;;;;;;;;5131881;27;11370;-67
2023/02/13 13:27:32;;;;;;;;;7.25;6.50;;;;;;;;5131606;27;11487;-67
2023/02/13 13:30:00;;;;;;;;;8.25;7.00;;;;;;;;5131853;27;11398;-67
2023/02/13 13:32:27;;;;;;;;;12.00;9.00;;;;;;;;5131744;27;11410;-68
2023/02/13 13:34:53;;;;;;;;;3.00;3.00;;;;;;;;5113266;27;11414;-68
2023/02/13 13:37:25;;;;;;;;;3.00;3.00;;;;;;;;5130975;27;11381;-68
2023/02/13 13:40:16;;;;;;;;;6.25;3.00;;;;;;;;5131482;27;8829;-67
2023/02/13 13:42:41;;;;;;;;;5.00;5.00;;;;;;;;5131546;27;11415;-67
2023/02/13 13:45:09;;;;;;;;;4.00;4.00;;;;;;;;5131551;27;12124;-67
2023/02/13 13:47:37;;;;;;;;;4.00;4.00;;;;;;;;5131385;27;8796;-68
2023/02/13 13:50:04;;;;;;;;;2.25;2.25;;;;;;;;5131249;27;11412;-67
2023/02/13 13:52:36;;;;;;;;;3.25;3.25;;;;;;;;5131299;27;11326;-67
2023/02/13 13:55:03;;;;;;;;;5.75;4.00;;;;;;;;5131280;27;11426;-67
2023/02/13 13:57:40;;;;;;;;;3.00;3.00;;;;;;;;5130725;27;11396;-68
2023/02/13 14:00:08;;;;;;;;;2.75;2.75;;;;;;;;5130923;27;11419;-68
2023/02/13 14:02:37;;;;;;;;;2.00;2.00;;;;;;;;5131158;27;11368;-68
2023/02/13 14:05:03;;;;;;;;;3.00;3.00;;;;;;;;5131079;27;11390;-67
2023/02/13 14:07:40;;;;;;;;;6.00;2.25;;;;;;;;5112468;27;11431;-67
2023/02/13 14:10:13;;;;;;;;;4.25;3.00;;;;;;;;5130878;27;8792;-67
2023/02/13 14:12:45;;;;;;;;;3.00;3.00;;;;;;;;5112294;27;12066;-67
2023/02/13 14:15:30;;;;;;;;;14.50;12.00;;;;;;;;5130449;27;11508;-67
2023/02/13 14:17:55;;;;;;;;;7.25;6.00;;;;;;;;5112771;27;11554;-67
2023/02/13 14:20:25;;;;;;;;;4.00;4.00;;;;;;;;5130732;27;11533;-67
2023/02/13 14:22:51;;;;;;;;;3.00;3.00;;;;;;;;5112445;27;8837;-68
2023/02/13 14:25:34;;;;;;;;;5.50;3.75;;;;;;;;5130594;27;11533;-67
2023/02/13 14:28:01;;;;;;;;;3.00;3.00;;;;;;;;5130515;27;8778;-68
2023/02/13 14:30:29;;;;;;;;;3.00;2.00;;;;;;;;5130366;27;11436;-67
2023/02/13 14:32:55;;;;;;;;;4.00;4.00;;;;;;;;5130114;27;11391;-68
2023/02/13 14:35:27;;;;;;;;;4.50;3.50;;;;;;;;5111917;27;11438;-68
2023/02/13 14:37:59;;;;;;;;;7.00;6.00;;;;;;;;5130710;27;8778;-67
2023/02/13 14:40:28;;;;;;;;;8.50;6.00;;;;;;;;5112244;27;11475;-68
2023/02/13 14:43:16;;;;;;;;;2.25;2.25;;;;;;;;5130238;27;11372;-67
2023/02/13 14:46:17;;;;;;;;;3.00;3.00;;;;;;;;5116501;27;11333;-67
2023/02/13 14:49:03;;;;;;;;;3.25;3.00;;;;;;;;5027119;28;11683;-68
2023/02/13 22:21:48;;;;;;;;;30.67;28.33;;;;;;;;5089179;27;13385;-69
2023/02/13 22:24:13;;;;;;;;;33.33;32.33;;;;;;;;5077612;28;10035;-68
2023/02/13 22:26:40;;;;;;;;;30.67;25.67;;;;;;;;5076899;28;9852;-68
2023/02/13 22:29:07;;;;;;;;;27.67;25.67;;;;;;;;5064926;28;8908;-69
2023/02/13 22:31:33;;;;;;;;;31.00;29.00;;;;;;;;5070552;28;9971;-69
2023/02/13 22:33:58;;;;;;;;;31.67;30.67;;;;;;;;5066743;28;8810;-69
2023/02/13 22:36:24;;;;;;;;;38.33;34.00;;;;;;;;5066512;28;8799;-68
2023/02/13 22:38:50;;;;;;;;;32.67;27.67;;;;;;;;5068811;28;9957;-68
2023/02/13 22:41:25;;;;;;;;;29.33;28.00;;;;;;;;5067074;28;8894;-68
2023/02/13 22:43:50;;;;;;;;;34.33;30.00;;;;;;;;5066708;28;8786;-69
2023/02/13 22:46:18;;;;;;;;;36.00;31.00;;;;;;;;5066430;28;8907;-68
2023/02/13 22:48:44;;;;;;;;;36.00;31.00;;;;;;;;5064491;28;8811;-69
2023/02/13 22:51:11;;;;;;;;;29.00;24.00;;;;;;;;5062245;28;8814;-71
2023/02/13 22:53:36;;;;;;;;;29.67;26.33;;;;;;;;5048790;28;8817;-68
2023/02/13 22:56:03;;;;;;;;;24.67;24.00;;;;;;;;5046517;28;8862;-68
2023/02/13 22:58:28;;;;;;;;;31.67;24.67;;;;;;;;5064789;28;8903;-68
2023/02/13 23:00:53;;;;;;;;;21.67;19.00;;;;;;;;5066254;28;8827;-68
2023/02/13 23:03:19;;;;;;;;;23.67;22.00;;;;;;;;5064480;28;8837;-69
2023/02/13 23:05:44;;;;;;;;;27.00;25.00;;;;;;;;5063922;28;8888;-67
2023/02/13 23:08:10;;;;;;;;;27.33;18.33;;;;;;;;5063586;28;9528;-67
2023/02/13 23:10:35;;;;;;;;;28.33;24.00;;;;;;;;5063599;28;8855;-68
2023/02/13 23:13:00;;;;;;;;;31.67;28.00;;;;;;;;5063618;28;8837;-68
2023/02/13 23:15:26;;;;;;;;;26.67;24.00;;;;;;;;5063436;28;8814;-68
2023/02/13 23:20:35;;;;;;;;;28.67;27.67;;;;;;;;5065860;28;8831;-67
2023/02/13 23:23:00;;;;;;;;;31.00;25.67;;;;;;;;5065842;28;8921;-68
2023/02/13 23:25:25;;;;;;;;;32.33;27.33;;;;;;;;5065825;28;8897;-68
2023/02/13 23:27:52;;;;;;;;;27.33;22.00;;;;;;;;5065645;28;8894;-68
2023/02/13 23:30:18;;;;;;;;;25.00;23.33;;;;;;;;5065787;28;8794;-68
2023/02/13 23:32:43;;;;;;;;;28.67;27.33;;;;;;;;5054886;28;8799;-68
2023/02/13 23:35:09;;;;;;;;;21.67;16.67;;;;;;;;5052524;28;9538;-68
2023/02/13 23:37:34;;;;;;;;;22.00;21.00;;;;;;;;5052603;28;8791;-68
2023/02/13 23:40:00;;;;;;;;;24.67;24.00;;;;;;;;5052433;28;8909;-68
2023/02/13 23:42:25;;;;;;;;;26.33;24.33;;;;;;;;5052641;28;8791;-68
2023/02/13 23:44:50;;;;;;;;;30.33;23.33;;;;;;;;5052321;28;8875;-68
2023/02/13 23:47:16;;;;;;;;;27.00;24.33;;;;;;;;5052226;28;8825;-69
2023/02/13 23:49:41;;;;;;;;;21.67;19.67;;;;;;;;5052226;28;8868;-68
2023/02/13 23:52:06;;;;;;;;;23.33;21.33;;;;;;;;5052171;28;8807;-68
2023/02/13 23:54:31;;;;;;;;;28.33;24.00;;;;;;;;5051965;28;8814;-68
2023/02/13 23:56:57;;;;;;;;;18.00;14.33;;;;;;;;5052014;28;8849;-69
2023/02/13 23:59:22;;;;;;;;;21.00;21.00;;;;;;;;5052079;28;8814;-68
